24h
KLIENDITUGI:
Saartelennuliinid: +372 58856336 (24/7)
Estairi piletikassa lennujaamas:
+372 6058887; +372 55603687

08.11.2018 hommikune Transaviabaltika lend KTB670 Tallinn - Kärdla ja KTB671 Kärdla – Tallinn väljalend jääb ära. Lennu ära jäämise põhjustab ilmastikuolu Kärdla lennuväljal. Reisijatele võimaldatakse tasuta lennupileti ümberbroneerimine reisija soovi kohasele mõnele teisele Tallinn-Kärdla või Kärdla-Tallinn lennule. Reisijatele kes ei soovi lennupileti ümberbroneerimist teisele lennule tagastatakse piletiraha. Oma soovist tuleb teada anda e-mailile [email protected] Lisainformatsioon telefonil 58856336.

EEKA Kärdla lennuväli FCEO32 EETN 080400

TAF EEKA 080400Z 0805/0811 14006KT 4000 BR BKN003 OVC010

TEMPO 0805/0808 2000 DZ BECMG 0808/0810 8000 BKN012=

SPECI EEKA 080500Z 13004KT 3600 BR OVC002 08/08 Q1020=
Kuupäev: 
08/11/2018